Time;durP1;ratioP1;P1;durP2;ratioP2;P2;SDS_P1;SDS_P2;PMS_P1;PMS_P2;Temp;Humidity;BMP_temperature;BMP_pressure;BME280_temperature;BME280_humidity;BME280_pressure;Samples;Min_cycle;Max_cycle;Signal;HPM_P1;HPM_P2
2022/11/21 00:00:32;;;;;;;12.68;2.88;;;;;;;;;;2055006;28;20077;-89
2022/11/21 00:01:33;;;;;;;15.65;3.45;;;;;;;;;;2055148;28;20031;-89
2022/11/21 00:02:33;;;;;;;12.05;2.10;;;;;;;;;;2047090;28;20458;-90
2022/11/21 00:03:36;;;;;;;8.65;2.85;;;;;;;;;;2055103;28;20031;-92
2022/11/21 00:04:37;;;;;;;11.52;2.53;;;;;;;;;;2055302;28;20410;-90
2022/11/21 00:05:40;;;;;;;9.68;3.67;;;;;;;;;;2056006;28;20052;-91
2022/11/21 00:06:40;;;;;;;12.48;2.20;;;;;;;;;;2065471;28;20088;-91
2022/11/21 00:07:41;;;;;;;9.70;2.70;;;;;;;;;;1716548;28;10300153;-90
2022/11/21 00:08:41;;;;;;;15.10;2.70;;;;;;;;;;2064652;28;20065;-90
2022/11/21 00:09:42;;;;;;;10.75;2.60;;;;;;;;;;2057181;29;20427;-90
2022/11/21 00:10:43;;;;;;;12.55;2.47;;;;;;;;;;2059020;28;20593;-91
2022/11/21 00:11:43;;;;;;;10.68;2.95;;;;;;;;;;2056988;28;20133;-91
2022/11/21 00:12:44;;;;;;;13.50;2.90;;;;;;;;;;2057023;28;20461;-90
2022/11/21 00:13:44;;;;;;;13.32;2.60;;;;;;;;;;2056865;28;20090;-90
2022/11/21 00:14:45;;;;;;;11.98;3.13;;;;;;;;;;1708974;28;10128733;-91
2022/11/21 00:15:46;;;;;;;12.80;2.60;;;;;;;;;;2064703;28;20141;-89
2022/11/21 00:16:47;;;;;;;10.88;2.38;;;;;;;;;;2064506;28;20069;-91
2022/11/21 00:17:47;;;;;;;9.10;2.72;;;;;;;;;;2056944;28;20512;-93
2022/11/21 00:18:48;;;;;;;10.40;2.38;;;;;;;;;;2049085;28;20070;-92
2022/11/21 00:19:48;;;;;;;9.88;3.17;;;;;;;;;;2057038;28;20553;-91
2022/11/21 00:20:48;;;;;;;9.60;2.55;;;;;;;;;;2057588;28;20027;-91
2022/11/21 00:21:50;;;;;;;9.68;2.42;;;;;;;;;;2056778;28;20027;-91
2022/11/21 00:22:50;;;;;;;9.13;2.35;;;;;;;;;;2049013;28;20046;-90
2022/11/21 00:23:51;;;;;;;10.57;2.20;;;;;;;;;;2057234;28;20104;-91
2022/11/21 00:24:52;;;;;;;11.32;2.60;;;;;;;;;;2057137;28;20026;-91
2022/11/21 00:25:52;;;;;;;8.38;2.78;;;;;;;;;;2057216;28;20027;-91
2022/11/21 00:26:54;;;;;;;6.30;2.55;;;;;;;;;;2057382;28;20027;-91
2022/11/21 00:27:56;;;;;;;11.95;2.80;;;;;;;;;;2056676;28;20027;-91
2022/11/21 00:28:56;;;;;;;8.18;2.17;;;;;;;;;;2056826;28;20039;-89
2022/11/21 00:29:56;;;;;;;6.68;2.30;;;;;;;;;;2056314;28;20098;-89
2022/11/21 00:30:58;;;;;;;8.25;2.20;;;;;;;;;;2056473;28;20040;-90
2022/11/21 00:31:58;;;;;;;10.57;3.03;;;;;;;;;;2057746;28;20102;-90
2022/11/21 00:32:59;;;;;;;11.18;2.47;;;;;;;;;;2056905;28;20086;-89
2022/11/21 00:33:59;;;;;;;12.35;2.22;;;;;;;;;;2048608;28;20103;-90
2022/11/21 00:35:00;;;;;;;13.10;2.45;;;;;;;;;;2048574;29;20070;-90
2022/11/21 00:36:08;;;;;;;12.73;2.33;;;;;;;;;;2056667;28;20031;-89
2022/11/21 00:37:08;;;;;;;8.27;2.30;;;;;;;;;;2063824;28;20101;-89
2022/11/21 00:38:08;;;;;;;7.53;2.38;;;;;;;;;;2057345;28;20023;-89
2022/11/21 00:39:09;;;;;;;12.38;2.92;;;;;;;;;;2056582;28;20197;-88
2022/11/21 00:40:10;;;;;;;7.40;2.58;;;;;;;;;;2056653;28;20599;-90
2022/11/21 00:41:10;;;;;;;13.20;2.55;;;;;;;;;;2064521;28;20445;-89
2022/11/21 00:42:11;;;;;;;13.40;3.17;;;;;;;;;;2064892;28;20473;-89
2022/11/21 00:43:11;;;;;;;21.88;3.60;;;;;;;;;;2057691;28;20109;-90
2022/11/21 00:44:11;;;;;;;8.60;3.15;;;;;;;;;;2057392;28;20381;-91
2022/11/21 00:45:12;;;;;;;11.73;2.13;;;;;;;;;;2056695;28;20526;-90
2022/11/21 00:46:14;;;;;;;12.32;2.83;;;;;;;;;;2048778;28;20529;-89
2022/11/21 00:47:14;;;;;;;12.65;3.17;;;;;;;;;;2056392;28;20027;-89
2022/11/21 00:48:15;;;;;;;10.70;2.88;;;;;;;;;;2057040;28;20069;-90
2022/11/21 00:49:15;;;;;;;14.43;2.67;;;;;;;;;;2056291;28;20525;-89
2022/11/21 00:50:15;;;;;;;12.57;3.40;;;;;;;;;;2064601;28;20093;-91
2022/11/21 00:51:17;;;;;;;7.07;2.08;;;;;;;;;;2057274;28;20375;-90
2022/11/21 00:52:18;;;;;;;11.55;2.92;;;;;;;;;;2057410;28;20078;-90
2022/11/21 00:53:18;;;;;;;12.40;2.75;;;;;;;;;;2064634;28;20018;-91
2022/11/21 00:54:18;;;;;;;16.17;2.95;;;;;;;;;;2056278;28;20041;-91
2022/11/21 00:55:19;;;;;;;13.00;2.70;;;;;;;;;;2056548;28;20027;-90
2022/11/21 00:56:24;;;;;;;11.15;2.92;;;;;;;;;;2064429;28;20018;-90
2022/11/21 00:57:24;;;;;;;6.80;2.92;;;;;;;;;;2063654;28;20034;-90
2022/11/21 00:58:25;;;;;;;11.07;2.83;;;;;;;;;;2056135;28;20042;-90
2022/11/21 00:59:25;;;;;;;11.88;3.17;;;;;;;;;;2056081;28;20039;-89
2022/11/21 01:00:26;;;;;;;9.55;2.47;;;;;;;;;;2056787;28;20425;-90
2022/11/21 01:01:26;;;;;;;14.02;2.92;;;;;;;;;;2056599;28;20052;-89
2022/11/21 01:02:30;;;;;;;;;;;;;;;;;;1431840;28;10001374;-91
2022/11/21 01:03:34;;;;;;;12.50;3.55;;;;;;;;;;2060360;28;19921;-90
2022/11/21 01:04:34;;;;;;;13.40;2.85;;;;;;;;;;2062369;28;20054;-91
2022/11/21 01:05:35;;;;;;;17.00;3.28;;;;;;;;;;2056097;28;20031;-91
2022/11/21 01:06:39;;;;;;;8.35;3.03;;;;;;;;;;2055989;28;20077;-91
2022/11/21 01:07:39;;;;;;;14.88;4.32;;;;;;;;;;2056367;28;20089;-91
2022/11/21 01:08:42;;;;;;;8.77;2.95;;;;;;;;;;2056004;28;20106;-91
2022/11/21 01:09:42;;;;;;;15.88;3.03;;;;;;;;;;2048466;28;20122;-91
2022/11/21 01:10:43;;;;;;;10.88;2.78;;;;;;;;;;2047943;29;20039;-91
2022/11/21 01:11:43;;;;;;;18.35;2.70;;;;;;;;;;2055899;28;20485;-90
2022/11/21 01:12:44;;;;;;;14.95;3.22;;;;;;;;;;2056088;28;20486;-92
2022/11/21 01:13:45;;;;;;;10.73;3.10;;;;;;;;;;2048204;29;20026;-91
2022/11/21 01:14:46;;;;;;;12.60;3.10;;;;;;;;;;2055881;28;20110;-91
2022/11/21 01:15:46;;;;;;;;;;;;;;;;;;1713724;28;10184526;-91
2022/11/21 01:16:47;;;;;;;23.67;3.37;;;;;;;;;;2063767;28;19910;-90
2022/11/21 01:17:48;;;;;;;15.13;3.50;;;;;;;;;;2055391;28;20031;-90
2022/11/21 01:18:49;;;;;;;15.75;3.38;;;;;;;;;;2047702;28;20034;-89
2022/11/21 01:19:49;;;;;;;17.63;3.80;;;;;;;;;;2055820;28;20481;-90
2022/11/21 01:20:49;;;;;;;12.88;3.42;;;;;;;;;;2063947;28;20498;-91
2022/11/21 01:21:50;;;;;;;13.65;2.97;;;;;;;;;;2055866;28;20037;-91
2022/11/21 01:22:50;;;;;;;11.23;3.20;;;;;;;;;;2055875;28;20038;-90
2022/11/21 01:23:52;;;;;;;10.85;3.30;;;;;;;;;;2055913;28;20034;-91
2022/11/21 01:24:52;;;;;;;14.52;3.33;;;;;;;;;;2055750;28;20097;-91
2022/11/21 01:25:52;;;;;;;15.15;3.95;;;;;;;;;;2055760;28;20054;-90
2022/11/21 01:26:54;;;;;;;16.50;4.22;;;;;;;;;;2055729;28;20181;-91
2022/11/21 01:27:54;;;;;;;13.18;4.68;;;;;;;;;;2056255;28;20508;-91
2022/11/21 01:28:56;;;;;;;20.77;4.00;;;;;;;;;;2054360;28;20047;-90
2022/11/21 01:29:57;;;;;;;17.77;3.83;;;;;;;;;;2048181;28;20110;-90
2022/11/21 01:31:05;;;;;;;16.30;3.72;;;;;;;;;;2057929;28;20494;-89
2022/11/21 01:32:06;;;;;;;21.83;4.32;;;;;;;;;;2056160;28;20038;-89
2022/11/21 01:33:06;;;;;;;13.35;3.95;;;;;;;;;;2056322;28;20023;-90
2022/11/21 01:34:07;;;;;;;19.27;4.28;;;;;;;;;;2056504;28;20085;-90
2022/11/21 01:35:07;;;;;;;11.00;3.17;;;;;;;;;;2055490;28;20018;-90
2022/11/21 01:36:13;;;;;;;12.75;3.10;;;;;;;;;;2053523;28;20129;-89
2022/11/21 01:37:14;;;;;;;12.50;3.17;;;;;;;;;;2055718;28;20027;-90
2022/11/21 01:38:14;;;;;;;17.13;3.83;;;;;;;;;;2055943;28;20019;-91
2022/11/21 01:39:14;;;;;;;14.27;3.28;;;;;;;;;;2064397;28;20097;-89
2022/11/21 01:40:15;;;;;;;15.73;3.15;;;;;;;;;;2055809;28;20061;-90
2022/11/21 01:41:21;;;;;;;17.42;3.55;;;;;;;;;;2047930;28;20058;-92
2022/11/21 01:42:22;;;;;;;18.80;3.70;;;;;;;;;;2055510;28;20702;-91
2022/11/21 01:43:22;;;;;;;21.25;5.32;;;;;;;;;;2056038;28;20043;-90
2022/11/21 01:44:25;;;;;;;16.15;3.22;;;;;;;;;;2057377;28;20128;-90
2022/11/21 01:45:47;;;;;;;16.42;2.97;;;;;;;;;;2060856;28;20201;-90
2022/11/21 01:46:49;;;;;;;16.92;4.18;;;;;;;;;;2055809;28;20481;-89
2022/11/21 01:47:50;;;;;;;11.00;3.15;;;;;;;;;;2057130;28;20022;-90
2022/11/21 01:48:55;;;;;;;20.75;4.00;;;;;;;;;;2055875;28;20023;-91
2022/11/21 01:49:56;;;;;;;18.05;4.82;;;;;;;;;;2055999;28;20034;-92
2022/11/21 01:51:01;;;;;;;14.05;3.53;;;;;;;;;;2055737;28;20505;-91
2022/11/21 01:52:12;;;;;;;19.05;3.58;;;;;;;;;;2056063;28;20027;-91
2022/11/21 01:53:12;;;;;;;10.63;3.10;;;;;;;;;;2055849;28;20457;-92
2022/11/21 01:54:18;;;;;;;20.20;3.40;;;;;;;;;;2056033;28;20193;-92
2022/11/21 01:55:19;;;;;;;19.23;4.07;;;;;;;;;;2056478;28;20037;-91
2022/11/21 01:56:20;;;;;;;15.80;3.40;;;;;;;;;;2063779;28;20069;-91
2022/11/21 01:57:23;;;;;;;11.32;3.88;;;;;;;;;;2055646;28;20085;-91
2022/11/21 01:58:24;;;;;;;19.73;3.40;;;;;;;;;;2055773;28;20026;-91
2022/11/21 01:59:36;;;;;;;16.08;3.63;;;;;;;;;;2063949;28;20434;-90
2022/11/21 02:00:39;;;;;;;18.50;4.82;;;;;;;;;;2063774;28;20053;-90
2022/11/21 02:01:40;;;;;;;15.52;3.45;;;;;;;;;;2055664;28;20089;-91
2022/11/21 02:02:45;;;;;;;23.45;4.20;;;;;;;;;;2055821;28;20034;-90
2022/11/21 02:03:47;;;;;;;22.65;3.95;;;;;;;;;;2055847;28;20043;-91
2022/11/21 02:04:49;;;;;;;13.38;3.17;;;;;;;;;;2047988;28;20073;-91
2022/11/21 02:05:51;;;;;;;14.32;3.45;;;;;;;;;;1710798;28;10062257;-90
2022/11/21 02:06:52;;;;;;;18.75;4.10;;;;;;;;;;2055965;28;20031;-92
2022/11/21 02:07:56;;;;;;;15.43;3.60;;;;;;;;;;2055829;28;20507;-91
2022/11/21 02:08:58;;;;;;;20.95;3.25;;;;;;;;;;2055740;28;20058;-91
2022/11/21 02:10:00;;;;;;;24.63;4.00;;;;;;;;;;2048080;28;20515;-91
2022/11/21 02:11:16;;;;;;;18.52;3.45;;;;;;;;;;2055824;28;20050;-90
2022/11/21 02:12:25;;;;;;;13.57;3.25;;;;;;;;;;2063981;28;20478;-92
2022/11/21 02:13:25;;;;;;;11.98;2.90;;;;;;;;;;2055812;28;20085;-90
2022/11/21 02:14:26;;;;;;;17.92;3.50;;;;;;;;;;2047670;28;20035;-89
2022/11/21 02:15:28;;;;;;;19.17;3.72;;;;;;;;;;2047614;28;20070;-90
2022/11/21 02:16:30;;;;;;;18.13;3.88;;;;;;;;;;2047943;28;20066;-89
2022/11/21 02:17:31;;;;;;;23.70;3.70;;;;;;;;;;2055627;28;20030;-89
2022/11/21 02:18:31;;;;;;;15.25;4.47;;;;;;;;;;2055464;28;20027;-91
2022/11/21 02:19:53;;;;;;;16.52;3.90;;;;;;;;;;2047829;28;20031;-91
2022/11/21 02:20:59;;;;;;;;;;;;;;;;;;2058947;28;20041;-90
2022/11/21 02:22:36;;;;;;;14.65;3.28;;;;;;;;;;2055564;28;19972;-92
2022/11/21 02:24:01;;;;;;;19.15;4.07;;;;;;;;;;2052258;28;20042;-91
2022/11/21 02:25:10;;;;;;;20.77;3.58;;;;;;;;;;2055775;28;20035;-90
2022/11/21 02:26:11;;;;;;;12.65;3.50;;;;;;;;;;2055574;28;20023;-90
2022/11/21 02:27:12;;;;;;;18.75;3.42;;;;;;;;;;2055683;28;20401;-89
2022/11/21 02:28:15;;;;;;;21.40;5.05;;;;;;;;;;2056258;28;20022;-90
2022/11/21 02:29:18;;;;;;;16.15;4.65;;;;;;;;;;2055187;28;20061;-90
2022/11/21 02:30:18;;;;;;;20.20;3.80;;;;;;;;;;2055398;28;20022;-90
2022/11/21 02:31:25;;;;;;;19.62;5.04;;;;;;;;;;1921781;28;10236227;-92
2022/11/21 02:32:33;;;;;;;16.73;3.25;;;;;;;;;;2066245;28;20662;-92
2022/11/21 02:33:34;;;;;;;27.77;4.07;;;;;;;;;;2064833;28;20037;-90
2022/11/21 02:34:34;;;;;;;18.40;4.00;;;;;;;;;;2063419;28;20022;-92
2022/11/21 02:35:35;;;;;;;9.98;3.20;;;;;;;;;;2055573;28;20121;-91
2022/11/21 02:36:41;;;;;;;14.75;3.30;;;;;;;;;;2047776;28;20081;-92
2022/11/21 02:37:58;;;;;;;13.05;2.90;;;;;;;;;;2048394;28;20042;-91
2022/11/21 02:38:58;;;;;;;20.88;3.80;;;;;;;;;;2055675;28;20448;-90
2022/11/21 02:40:01;;;;;;;10.40;3.28;;;;;;;;;;1703667;28;10253906;-89
2022/11/21 02:41:13;;;;;;;16.60;3.15;;;;;;;;;;2047885;28;20360;-91
2022/11/21 02:42:26;;;;;;;9.63;2.60;;;;;;;;;;2048879;28;20050;-91
2022/11/21 02:43:36;;;;;;;23.35;3.55;;;;;;;;;;2049039;28;20049;-91
2022/11/21 02:44:49;;;;;;;14.87;3.80;;;;;;;;;;2055282;28;20039;-90
2022/11/21 02:45:50;;;;;;;18.63;3.80;;;;;;;;;;2063225;28;20093;-91
2022/11/21 02:46:51;;;;;;;20.35;3.95;;;;;;;;;;2055107;28;20069;-91
2022/11/21 02:47:53;;;;;;;21.90;4.50;;;;;;;;;;2055219;28;20110;-92
2022/11/21 02:48:56;;;;;;;21.33;4.28;;;;;;;;;;2063264;28;20057;-91
2022/11/21 02:50:11;;;;;;;19.77;3.92;;;;;;;;;;2055542;28;20034;-91
2022/11/21 02:51:12;;;;;;;13.18;3.67;;;;;;;;;;2055590;28;20026;-91
2022/11/21 02:52:12;;;;;;;16.92;3.58;;;;;;;;;;2063058;28;20084;-91
2022/11/21 02:53:15;;;;;;;22.70;4.15;;;;;;;;;;2055179;28;20549;-91
2022/11/21 02:54:15;;;;;;;11.23;3.47;;;;;;;;;;1364667;28;10021751;-90
2022/11/21 02:55:16;;;;;;;14.77;3.90;;;;;;;;;;2047299;29;20479;-90
2022/11/21 02:56:16;;;;;;;22.25;4.00;;;;;;;;;;2055950;28;20030;-89
2022/11/21 02:57:25;;;;;;;16.40;3.50;;;;;;;;;;2055314;28;20122;-89
2022/11/21 02:58:25;;;;;;;23.40;4.10;;;;;;;;;;2056062;28;20030;-91
2022/11/21 02:59:26;;;;;;;19.33;4.60;;;;;;;;;;2055836;28;20457;-90
2022/11/21 03:00:26;;;;;;;16.42;3.35;;;;;;;;;;2055011;28;20438;-91
2022/11/21 03:01:27;;;;;;;13.90;3.22;;;;;;;;;;2047312;28;20123;-91
2022/11/21 03:02:27;;;;;;;18.70;3.50;;;;;;;;;;2048424;28;20038;-91
2022/11/21 03:03:27;;;;;;;12.93;3.17;;;;;;;;;;2055167;28;20202;-90
2022/11/21 03:04:28;;;;;;;11.25;4.03;;;;;;;;;;2054830;28;20427;-90
2022/11/21 03:05:29;;;;;;;17.48;4.25;;;;;;;;;;2055475;28;20031;-90
2022/11/21 03:06:30;;;;;;;15.02;3.50;;;;;;;;;;2055920;28;20409;-90
2022/11/21 03:07:30;;;;;;;12.48;3.70;;;;;;;;;;2055467;28;20023;-90
2022/11/21 03:08:31;;;;;;;14.68;3.28;;;;;;;;;;2055054;28;20145;-91
2022/11/21 03:09:31;;;;;;;19.60;3.80;;;;;;;;;;2063275;28;20474;-91
2022/11/21 03:10:32;;;;;;;19.65;4.43;;;;;;;;;;2055918;28;20058;-90
2022/11/21 03:11:33;;;;;;;15.45;3.60;;;;;;;;;;2063305;28;20049;-91
2022/11/21 03:12:41;;;;;;;18.85;3.28;;;;;;;;;;2054990;28;20037;-91
2022/11/21 03:13:41;;;;;;;14.00;3.55;;;;;;;;;;2055116;28;20427;-91
2022/11/21 03:14:41;;;;;;;14.32;3.40;;;;;;;;;;2055188;28;20117;-90
2022/11/21 03:15:42;;;;;;;17.08;3.35;;;;;;;;;;2054934;28;20038;-91
2022/11/21 03:16:42;;;;;;;13.82;3.95;;;;;;;;;;2055930;28;20502;-90
2022/11/21 03:17:47;;;;;;;20.08;4.50;;;;;;;;;;2055820;28;20061;-89
2022/11/21 03:18:47;;;;;;;15.32;3.20;;;;;;;;;;2055154;28;20022;-89
2022/11/21 03:19:48;;;;;;;16.98;4.28;;;;;;;;;;2055187;28;20034;-90
2022/11/21 03:20:48;;;;;;;15.02;3.03;;;;;;;;;;2055283;28;20489;-90
2022/11/21 03:21:49;;;;;;;21.20;4.43;;;;;;;;;;2054813;28;20117;-89
2022/11/21 03:22:49;;;;;;;15.35;4.22;;;;;;;;;;2055658;28;20104;-90
2022/11/21 03:23:50;;;;;;;15.48;4.75;;;;;;;;;;2055982;28;20050;-89
2022/11/21 03:24:51;;;;;;;20.38;4.22;;;;;;;;;;1704010;28;10443643;-90
2022/11/21 03:25:52;;;;;;;16.75;3.65;;;;;;;;;;2064718;28;20146;-90
2022/11/21 03:26:53;;;;;;;17.98;3.95;;;;;;;;;;2056937;28;20034;-91
2022/11/21 03:27:54;;;;;;;16.38;4.38;;;;;;;;;;2056806;28;20050;-91
2022/11/21 03:28:54;;;;;;;22.10;3.60;;;;;;;;;;2055978;28;20119;-90
2022/11/21 03:29:54;;;;;;;15.68;3.60;;;;;;;;;;2055403;28;20113;-91
2022/11/21 03:30:55;;;;;;;18.80;4.57;;;;;;;;;;2047104;29;20098;-90
2022/11/21 03:31:57;;;;;;;20.67;3.60;;;;;;;;;;2055512;28;20049;-90
2022/11/21 03:32:57;;;;;;;18.35;3.90;;;;;;;;;;2056746;28;20089;-91
2022/11/21 03:33:57;;;;;;;19.27;4.65;;;;;;;;;;2056169;28;20030;-91
2022/11/21 03:34:58;;;;;;;15.90;4.80;;;;;;;;;;2054864;28;20114;-91
2022/11/21 03:35:58;;;;;;;17.48;3.67;;;;;;;;;;2047298;28;20558;-91
2022/11/21 03:36:59;;;;;;;19.58;4.85;;;;;;;;;;2055119;28;20086;-91
2022/11/21 03:37:59;;;;;;;16.27;4.00;;;;;;;;;;2058598;28;20116;-91
2022/11/21 03:39:00;;;;;;;22.52;4.35;;;;;;;;;;2068103;28;20046;-90
2022/11/21 03:40:00;;;;;;;20.45;4.43;;;;;;;;;;2058762;28;20390;-88
2022/11/21 03:41:28;;;;;;;20.95;4.47;;;;;;;;;;1713240;28;10001277;-89
2022/11/21 03:42:25;;;;;;;20.65;4.82;;;;;;;;;;2060640;28;20068;-91
2022/11/21 03:43:25;;;;;;;24.30;4.65;;;;;;;;;;2055865;28;20086;-89
2022/11/21 03:44:26;;;;;;;16.98;4.18;;;;;;;;;;2054664;28;20133;-88
2022/11/21 03:45:26;;;;;;;21.45;4.93;;;;;;;;;;2047048;28;20503;-89
2022/11/21 03:46:28;;;;;;;16.15;3.58;;;;;;;;;;2055109;28;20118;-90
2022/11/21 03:47:37;;;;;;;17.99;3.85;;;;;;;;;;1990783;28;10041895;-90
2022/11/21 03:48:38;;;;;;;16.73;3.85;;;;;;;;;;2056005;28;20394;-90
2022/11/21 03:49:38;;;;;;;17.00;3.80;;;;;;;;;;2062669;28;20037;-91
2022/11/21 03:50:42;;;;;;;20.80;5.55;;;;;;;;;;2062567;28;20055;-91
2022/11/21 03:51:43;;;;;;;18.45;3.63;;;;;;;;;;2054642;28;20064;-89
2022/11/21 03:52:43;;;;;;;16.50;3.33;;;;;;;;;;2046747;28;20070;-90
2022/11/21 03:53:44;;;;;;;11.35;3.22;;;;;;;;;;2038276;28;20043;-91
2022/11/21 03:54:44;;;;;;;15.93;3.33;;;;;;;;;;2062746;28;20057;-91
2022/11/21 03:55:45;;;;;;;16.83;3.95;;;;;;;;;;2062624;28;20293;-92
2022/11/21 03:56:46;;;;;;;19.77;4.38;;;;;;;;;;2054513;28;20030;-91
2022/11/21 03:57:46;;;;;;;20.42;4.22;;;;;;;;;;2054805;28;20494;-91
2022/11/21 03:58:46;;;;;;;14.48;2.92;;;;;;;;;;2063056;28;20038;-91
2022/11/21 03:59:47;;;;;;;16.10;4.00;;;;;;;;;;2062990;28;20501;-91
2022/11/21 04:00:47;;;;;;;22.55;4.30;;;;;;;;;;2056517;28;20094;-91
2022/11/21 04:01:48;;;;;;;21.92;3.95;;;;;;;;;;2065943;28;20032;-90
2022/11/21 04:02:48;;;;;;;18.80;3.72;;;;;;;;;;2056302;28;20109;-91
2022/11/21 04:03:49;;;;;;;12.20;3.28;;;;;;;;;;2046820;28;20030;-91
2022/11/21 04:04:49;;;;;;;22.65;3.78;;;;;;;;;;2046734;28;20039;-91
2022/11/21 04:05:50;;;;;;;16.67;3.60;;;;;;;;;;2054938;28;20097;-92
2022/11/21 04:06:50;;;;;;;13.82;2.83;;;;;;;;;;2063104;28;20045;-91
2022/11/21 04:07:52;;;;;;;16.27;3.25;;;;;;;;;;2055158;28;20359;-92
2022/11/21 04:08:53;;;;;;;15.77;3.50;;;;;;;;;;2054864;28;20126;-91
2022/11/21 04:09:53;;;;;;;21.70;4.35;;;;;;;;;;2054836;28;20023;-92
2022/11/21 04:10:54;;;;;;;12.57;2.45;;;;;;;;;;2046738;29;20023;-92
2022/11/21 04:11:55;;;;;;;9.52;3.67;;;;;;;;;;2046747;28;20055;-91
2022/11/21 04:12:55;;;;;;;19.17;4.05;;;;;;;;;;2055307;28;20143;-90
2022/11/21 04:13:56;;;;;;;9.48;2.53;;;;;;;;;;2055459;28;20505;-90
2022/11/21 04:14:56;;;;;;;16.15;3.10;;;;;;;;;;2055478;28;20504;-91
2022/11/21 04:15:56;;;;;;;12.65;3.92;;;;;;;;;;2054723;28;20015;-90
2022/11/21 04:16:57;;;;;;;13.52;3.47;;;;;;;;;;2054956;28;20050;-91
2022/11/21 04:17:58;;;;;;;;;;;;;;;;;;1713161;28;10002493;-91
2022/11/21 04:18:58;;;;;;;9.53;3.03;;;;;;;;;;2054960;28;19946;-91
2022/11/21 04:19:58;;;;;;;15.93;3.28;;;;;;;;;;2054515;28;20114;-91
2022/11/21 04:21:05;;;;;;;12.15;2.63;;;;;;;;;;2062808;28;20475;-90
2022/11/21 04:22:05;;;;;;;13.13;2.92;;;;;;;;;;2062740;28;20113;-91
2022/11/21 04:23:06;;;;;;;11.95;2.20;;;;;;;;;;2062708;28;20496;-91
2022/11/21 04:24:08;;;;;;;12.32;2.60;;;;;;;;;;2054720;28;20030;-91
2022/11/21 04:25:08;;;;;;;13.05;2.60;;;;;;;;;;2047081;28;20057;-90
2022/11/21 04:26:09;;;;;;;14.30;2.60;;;;;;;;;;2055004;28;20031;-91
2022/11/21 04:27:10;;;;;;;13.88;2.50;;;;;;;;;;2054924;28;20109;-91
2022/11/21 04:28:12;;;;;;;12.90;2.53;;;;;;;;;;2054799;28;20029;-90
2022/11/21 04:29:12;;;;;;;8.40;2.38;;;;;;;;;;2055187;28;20023;-90
2022/11/21 04:30:13;;;;;;;12.65;2.60;;;;;;;;;;2054697;28;20295;-90
2022/11/21 04:31:14;;;;;;;7.82;2.40;;;;;;;;;;2046880;28;20419;-89
2022/11/21 04:32:14;;;;;;;6.88;2.40;;;;;;;;;;2047493;28;20058;-90
2022/11/21 04:33:16;;;;;;;7.93;2.40;;;;;;;;;;2054726;28;20030;-89
2022/11/21 04:34:16;;;;;;;13.75;2.50;;;;;;;;;;2062946;28;20023;-92
2022/11/21 04:35:17;;;;;;;15.70;3.92;;;;;;;;;;2055452;28;20030;-90
2022/11/21 04:36:17;;;;;;;14.65;3.88;;;;;;;;;;2054778;28;20083;-89
2022/11/21 04:37:18;;;;;;;11.68;2.72;;;;;;;;;;2054798;28;20108;-89
2022/11/21 04:38:18;;;;;;;11.23;2.47;;;;;;;;;;2054700;28;20489;-90
2022/11/21 04:39:19;;;;;;;14.43;2.65;;;;;;;;;;2055150;28;20043;-91
2022/11/21 04:40:19;;;;;;;11.55;2.47;;;;;;;;;;2055253;28;20033;-91
2022/11/21 04:41:20;;;;;;;8.93;2.17;;;;;;;;;;2047228;28;20023;-92
2022/11/21 04:42:20;;;;;;;11.52;2.38;;;;;;;;;;2048129;28;20090;-91
2022/11/21 04:43:20;;;;;;;8.02;2.60;;;;;;;;;;2047507;29;20015;-91
2022/11/21 04:44:21;;;;;;;17.63;2.78;;;;;;;;;;2055283;28;20106;-92
2022/11/21 04:45:21;;;;;;;15.30;2.47;;;;;;;;;;2067548;28;20037;-92
2022/11/21 04:46:22;;;;;;;6.95;2.45;;;;;;;;;;2067370;28;20026;-91
2022/11/21 04:47:22;;;;;;;17.52;3.03;;;;;;;;;;2060648;28;20069;-90
2022/11/21 04:48:23;;;;;;;9.02;2.25;;;;;;;;;;2057558;28;20417;-92
2022/11/21 04:49:24;;;;;;;13.52;3.67;;;;;;;;;;2058087;28;20023;-92
2022/11/21 04:50:25;;;;;;;11.68;2.28;;;;;;;;;;2058025;28;20035;-91
2022/11/21 04:51:26;;;;;;;17.73;3.60;;;;;;;;;;2060217;28;20037;-89
2022/11/21 04:52:26;;;;;;;20.13;3.08;;;;;;;;;;2065723;28;20045;-90
2022/11/21 04:53:27;;;;;;;11.55;2.30;;;;;;;;;;2066840;28;20030;-91
2022/11/21 04:54:27;;;;;;;15.15;2.13;;;;;;;;;;2065433;28;20018;-88
2022/11/21 04:55:31;;;;;;;10.70;2.92;;;;;;;;;;2057576;28;20084;-89
2022/11/21 04:56:31;;;;;;;7.70;2.42;;;;;;;;;;2065342;28;20340;-89
2022/11/21 04:57:32;;;;;;;10.18;2.50;;;;;;;;;;2065052;28;20023;-88
2022/11/21 04:58:33;;;;;;;12.85;2.65;;;;;;;;;;2056748;28;20120;-91
2022/11/21 04:59:33;;;;;;;12.32;2.83;;;;;;;;;;1707401;28;10235852;-90
2022/11/21 05:00:34;;;;;;;11.35;3.05;;;;;;;;;;2059612;28;20019;-91
2022/11/21 05:01:36;;;;;;;15.90;2.53;;;;;;;;;;2051574;29;20027;-88
2022/11/21 05:02:37;;;;;;;12.73;2.47;;;;;;;;;;2055393;28;20050;-91
2022/11/21 05:03:38;;;;;;;11.88;2.28;;;;;;;;;;2057256;28;20027;-92
2022/11/21 05:04:38;;;;;;;9.52;2.17;;;;;;;;;;2056868;28;20437;-91
2022/11/21 05:05:39;;;;;;;11.45;1.83;;;;;;;;;;2048567;28;20127;-90
2022/11/21 05:06:39;;;;;;;14.23;2.30;;;;;;;;;;2058785;28;20039;-88
2022/11/21 05:07:40;;;;;;;13.10;2.35;;;;;;;;;;2066708;28;20030;-90
2022/11/21 05:08:40;;;;;;;15.95;3.30;;;;;;;;;;2057171;28;20058;-91
2022/11/21 05:09:41;;;;;;;10.27;2.17;;;;;;;;;;2056676;28;20029;-90
2022/11/21 05:13:20;;;;;;;13.55;2.47;;;;;;;;;;2057651;28;20061;-91
2022/11/21 05:14:20;;;;;;;11.25;2.85;;;;;;;;;;2064070;28;20022;-91
2022/11/21 05:15:21;;;;;;;8.65;2.70;;;;;;;;;;2064109;28;20353;-90
2022/11/21 05:16:21;;;;;;;15.07;2.75;;;;;;;;;;2064001;28;20076;-92
2022/11/21 05:17:22;;;;;;;14.20;2.63;;;;;;;;;;2064013;28;20441;-89
2022/11/21 05:18:22;;;;;;;13.20;3.30;;;;;;;;;;2056034;28;20077;-92
2022/11/21 05:19:23;;;;;;;11.10;2.92;;;;;;;;;;2055688;28;20034;-91
2022/11/21 05:20:23;;;;;;;11.32;2.80;;;;;;;;;;2064151;28;20018;-92
2022/11/21 05:21:24;;;;;;;11.68;2.45;;;;;;;;;;2055844;28;20026;-90
2022/11/21 05:22:24;;;;;;;12.82;2.88;;;;;;;;;;2048497;29;20035;-91
2022/11/21 05:23:25;;;;;;;12.18;2.90;;;;;;;;;;2056262;28;20051;-89
2022/11/21 05:24:25;;;;;;;12.43;3.08;;;;;;;;;;2056745;28;20058;-90
2022/11/21 05:25:28;;;;;;;10.85;2.60;;;;;;;;;;1783011;28;10251322;-90
2022/11/21 05:26:28;;;;;;;17.92;2.95;;;;;;;;;;2064017;28;20254;-91
2022/11/21 05:27:29;;;;;;;12.63;2.30;;;;;;;;;;2055960;28;20027;-92
2022/11/21 05:28:29;;;;;;;9.63;3.15;;;;;;;;;;2047669;28;20490;-91
2022/11/21 05:29:29;;;;;;;;;;;;;;;;;;1702550;28;10167690;-91
2022/11/21 05:30:30;;;;;;;11.20;2.70;;;;;;;;;;2058238;28;19917;-90
2022/11/21 05:31:30;;;;;;;17.83;2.97;;;;;;;;;;2057456;28;20027;-90
2022/11/21 05:32:31;;;;;;;6.75;1.92;;;;;;;;;;2057738;28;20667;-91
2022/11/21 05:33:31;;;;;;;9.70;2.17;;;;;;;;;;2056777;28;20023;-90
2022/11/21 05:34:32;;;;;;;10.93;2.92;;;;;;;;;;2056202;28;20126;-91
2022/11/21 05:35:32;;;;;;;10.90;2.38;;;;;;;;;;2064439;28;20034;-91
2022/11/21 05:36:32;;;;;;;14.55;3.03;;;;;;;;;;2056232;28;20023;-91
2022/11/21 05:37:33;;;;;;;8.88;2.22;;;;;;;;;;2056262;28;20105;-91
2022/11/21 05:38:33;;;;;;;13.00;2.53;;;;;;;;;;2063824;28;20022;-91
2022/11/21 05:39:34;;;;;;;9.73;2.42;;;;;;;;;;2055932;28;20031;-91
2022/11/21 05:40:34;;;;;;;9.93;2.55;;;;;;;;;;2056392;28;20046;-90
2022/11/21 05:41:34;;;;;;;15.25;3.05;;;;;;;;;;2056850;28;20022;-90
2022/11/21 05:43:57;;;;;;;13.13;2.28;;;;;;;;;;2062001;28;20038;-89
2022/11/21 05:44:57;;;;;;;14.90;2.97;;;;;;;;;;2056996;28;20019;-91
2022/11/21 05:45:58;;;;;;;9.60;2.67;;;;;;;;;;2056563;28;20124;-91
2022/11/21 05:46:58;;;;;;;13.80;2.65;;;;;;;;;;2056736;28;20454;-92
2022/11/21 05:47:59;;;;;;;16.42;2.65;;;;;;;;;;2056855;28;20023;-92
2022/11/21 05:48:59;;;;;;;14.82;2.78;;;;;;;;;;2056211;28;20106;-91
2022/11/21 05:49:59;;;;;;;12.05;2.65;;;;;;;;;;2055726;28;20429;-90
2022/11/21 05:51:00;;;;;;;9.00;2.75;;;;;;;;;;2047544;28;20074;-90
2022/11/21 05:52:00;;;;;;;11.68;2.30;;;;;;;;;;2055430;28;20589;-91
2022/11/21 05:53:05;;;;;;;10.85;2.30;;;;;;;;;;2063845;28;20034;-92
2022/11/21 05:54:05;;;;;;;7.85;2.03;;;;;;;;;;2055752;28;20097;-90
2022/11/21 05:55:06;;;;;;;13.07;2.65;;;;;;;;;;2047542;28;20638;-90
2022/11/21 05:56:09;;;;;;;10.52;2.58;;;;;;;;;;2055457;28;20023;-91
2022/11/21 05:57:10;;;;;;;9.15;2.70;;;;;;;;;;2055517;28;20022;-90
2022/11/21 05:58:11;;;;;;;12.50;2.03;;;;;;;;;;2047633;28;20023;-90
2022/11/21 05:59:11;;;;;;;6.60;1.77;;;;;;;;;;2055594;28;20030;-90
2022/11/21 06:00:12;;;;;;;10.82;1.77;;;;;;;;;;2055849;28;20053;-91
2022/11/21 06:01:14;;;;;;;10.18;1.63;;;;;;;;;;2055412;28;20042;-90
2022/11/21 06:03:36;;;;;;;11.55;1.85;;;;;;;;;;2056709;28;20026;-90
2022/11/21 06:04:37;;;;;;;6.88;1.55;;;;;;;;;;2063588;28;20023;-90
2022/11/21 06:05:37;;;;;;;6.95;1.77;;;;;;;;;;2055850;28;20048;-91
2022/11/21 06:06:37;;;;;;;7.10;1.50;;;;;;;;;;2055858;28;20037;-91
2022/11/21 06:07:38;;;;;;;15.18;3.08;;;;;;;;;;1702806;28;10292534;-90
2022/11/21 06:08:45;;;;;;;10.52;1.80;;;;;;;;;;2055354;28;20430;-90
2022/11/21 06:09:45;;;;;;;13.23;1.73;;;;;;;;;;2055702;28;20497;-89
2022/11/21 06:10:46;;;;;;;6.55;1.42;;;;;;;;;;2056276;28;20031;-89